Terminal Aerodrome Forecast
Issued by NWS

Home | Current Version | Previous Version | Text Only | Print | Product List | Glossary Off
Versions: 1 2 3 4 5 6 7 8 9 10 11 12

000
FTUS43 KMPX 110520
TAFAXN
TAF
KAXN 110520Z 1106/1206 20007KT 2SM -SN SCT010 OVC025
     FM110700 23007KT P6SM SCT030 OVC060
     FM111200 31013G22KT P6SM VCSH BKN008 OVC012
     FM111500 33020G31KT P6SM OVC015
     FM112300 33018G26KT P6SM SCT020
     FM120400 33011KT P6SM SCT090=

USA.gov is the U.S. government's official web portal to all federal, state and local government web resources and services.